Time;durP1;ratioP1;P1;durP2;ratioP2;P2;SDS_P1;SDS_P2;PMS_P1;PMS_P2;Temp;Humidity;BMP_temperature;BMP_pressure;BME280_temperature;BME280_humidity;BME280_pressure;Samples;Min_cycle;Max_cycle;Signal;HPM_P1;HPM_P2
2022/09/01 00:00:17;;;;;;;2.35;0.95;;;;;;;14.65;89.47;101395.59;5187633;28;20025;-77
2022/09/01 00:02:49;;;;;;;2.08;0.77;;;;;;;14.63;89.60;101392.16;5178223;28;20292;-77
2022/09/01 00:05:20;;;;;;;3.08;0.65;;;;;;;14.45;90.74;101392.88;5187964;28;20108;-77
2022/09/01 00:07:51;;;;;;;3.33;0.80;;;;;;;14.53;90.34;101388.16;5185990;28;20513;-77
2022/09/01 00:10:22;;;;;;;2.00;0.90;;;;;;;14.25;91.80;101392.78;5188144;28;20033;-77
2022/09/01 00:12:52;;;;;;;3.60;0.70;;;;;;;14.25;92.38;101382.25;5187471;28;20049;-77
2022/09/01 00:15:22;;;;;;;5.25;0.90;;;;;;;14.10;93.24;101393.31;5178771;28;20099;-77
2022/09/01 00:17:53;;;;;;;3.10;0.90;;;;;;;14.12;93.25;101389.69;5189034;28;20026;-77
2022/09/01 00:20:23;;;;;;;2.00;0.70;;;;;;;14.04;94.87;101390.88;5189290;28;20036;-77
2022/09/01 00:22:54;;;;;;;2.55;0.70;;;;;;;14.10;93.41;101390.69;5180172;28;20026;-77
2022/09/01 00:25:26;;;;;;;2.60;0.80;;;;;;;14.00;93.62;101391.91;5176652;28;20059;-77
2022/09/01 00:27:59;;;;;;;1.92;0.85;;;;;;;14.05;93.36;101397.88;5183502;28;20057;-77
2022/09/01 00:30:30;;;;;;;2.47;0.95;;;;;;;14.16;92.78;101390.47;5186695;28;20471;-77
2022/09/01 00:33:01;;;;;;;3.30;0.82;;;;;;;14.14;92.82;101392.28;5168706;28;20030;-77
2022/09/01 00:35:31;;;;;;;3.60;0.70;;;;;;;13.96;93.70;101395.56;5186110;28;20021;-76
2022/09/01 00:38:02;;;;;;;2.60;0.85;;;;;;;14.03;94.67;101397.94;5188910;28;20557;-77
2022/09/01 00:40:32;;;;;;;3.13;0.82;;;;;;;14.17;93.85;101389.56;5189109;28;20029;-77
2022/09/01 00:43:16;;;;;;;1.88;0.95;;;;;;;14.37;92.79;101395.78;5171430;28;20037;-77
2022/09/01 00:45:46;;;;;;;2.35;0.80;;;;;;;14.42;93.30;101393.00;5188917;28;20124;-77
2022/09/01 00:48:19;;;;;;;2.90;0.70;;;;;;;14.35;94.40;101396.75;5196265;28;20811;-77
2022/09/01 00:50:49;;;;;;;4.15;0.82;;;;;;;14.43;93.41;101394.72;5177049;28;20060;-77
2022/09/01 00:53:19;;;;;;;2.55;0.70;;;;;;;14.49;93.25;101395.34;5181274;28;20472;-77
2022/09/01 00:55:50;;;;;;;2.08;0.80;;;;;;;14.35;94.13;101404.66;5187751;28;20491;-77
2022/09/01 00:58:21;;;;;;;1.40;0.50;;;;;;;14.36;93.69;101401.09;5205223;23;20440;-77
2022/09/01 01:00:52;;;;;;;1.60;0.77;;;;;;;14.19;94.48;101398.25;5142305;28;20026;-74
2022/09/01 01:03:23;;;;;;;1.25;0.70;;;;;;;14.07;95.88;101396.06;5166425;28;20101;-74
2022/09/01 01:05:56;;;;;;;1.73;0.65;;;;;;;14.42;93.17;101398.25;5170693;28;20538;-74
2022/09/01 01:08:32;;;;;;;3.08;0.70;;;;;;;14.31;92.86;101392.53;5163447;28;20038;-75
2022/09/01 01:11:08;;;;;;;2.58;0.70;;;;;;;14.22;94.69;101392.91;5179338;28;20503;-74
2022/09/01 01:14:10;;;;;;;2.67;0.80;;;;;;;14.47;93.29;101396.28;5178522;28;20031;-74
2022/09/01 01:16:44;;;;;;;4.57;0.90;;;;;;;14.64;93.61;101385.97;5156273;28;20030;-74
2022/09/01 01:25:11;;;;;;;2.75;0.77;;;;;;;14.49;93.58;101384.81;5167584;28;20091;-75
2022/09/01 01:27:42;;;;;;;4.53;0.95;;;;;;;14.38;93.27;101388.75;5178273;28;20463;-75
2022/09/01 01:30:15;;;;;;;1.98;0.75;;;;;;;14.49;92.83;101383.94;5178802;28;20117;-74
2022/09/01 01:32:46;;;;;;;2.70;0.77;;;;;;;13.96;95.27;101388.56;5161273;28;20026;-75
2022/09/01 01:35:22;;;;;;;0.85;0.60;;;;;;;13.93;96.29;101386.03;5144900;28;20036;-74
2022/09/01 01:37:53;;;;;;;;;;;;;;;13.89;95.29;101381.78;5178516;28;20030;-75
2022/09/01 01:40:23;;;;;;;2.38;0.70;;;;;;;13.84;95.83;101388.13;5176776;28;19918;-75
2022/09/01 01:42:56;;;;;;;2.35;0.90;;;;;;;13.74;96.77;101384.97;5166992;28;20029;-75
2022/09/01 01:45:27;;;;;;;1.75;0.70;;;;;;;13.83;96.15;101389.03;5175196;28;20025;-75
2022/09/01 01:47:58;;;;;;;1.60;0.70;;;;;;;13.76;97.04;101387.56;5172554;28;20665;-75
2022/09/01 01:50:34;;;;;;;2.47;0.70;;;;;;;13.67;97.20;101386.09;5156704;28;20030;-75
2022/09/01 01:53:06;;;;;;;;;;;;;;;13.93;96.38;101386.03;5176237;28;20084;-75
2022/09/01 01:55:38;;;;;;;2.97;1.15;;;;;;;13.85;96.40;101390.72;5182656;28;19983;-75
2022/09/01 01:58:10;;;;;;;1.83;0.65;;;;;;;13.77;94.06;101391.91;5163698;28;20040;-76
2022/09/01 02:00:43;;;;;;;5.22;0.80;;;;;;;13.82;95.93;101393.44;5183232;28;20076;-75
2022/09/01 02:03:17;;;;;;;2.08;0.75;;;;;;;13.44;95.66;101396.53;5182872;28;20100;-75
2022/09/01 02:05:50;;;;;;;2.60;0.80;;;;;;;13.39;93.83;101395.84;5182196;28;20065;-75
2022/09/01 02:08:24;;;;;;;1.05;0.60;;;;;;;13.17;95.52;101400.09;5162434;28;20080;-75
2022/09/01 02:10:56;;;;;;;1.55;0.77;;;;;;;13.02;96.28;101410.22;5183252;28;20029;-75
2022/09/01 02:13:29;;;;;;;2.00;0.88;;;;;;;12.68;98.42;101403.44;5182754;28;20472;-75
2022/09/01 02:16:10;;;;;;;1.33;0.70;;;;;;;12.46;100.00;101402.38;5182043;28;20289;-74
2022/09/01 02:18:47;;;;;;;1.77;0.60;;;;;;;12.74;97.71;101404.13;5152567;28;20033;-75
2022/09/01 02:21:21;;;;;;;2.67;0.73;;;;;;;12.93;100.00;101404.41;5177894;28;20215;-75
2022/09/01 02:24:01;;;;;;;1.58;0.57;;;;;;;13.04;99.87;101408.44;5167082;28;20032;-75
2022/09/01 02:26:39;;;;;;;2.25;1.00;;;;;;;13.21;100.00;101401.72;5174648;28;20025;-72
2022/09/01 02:29:20;;;;;;;1.80;0.63;;;;;;;13.36;100.00;101398.56;5182426;28;20083;-75
2022/09/01 02:31:52;;;;;;;2.10;0.80;;;;;;;13.50;99.76;101405.97;5180994;28;20037;-75
2022/09/01 02:34:26;;;;;;;2.92;0.80;;;;;;;13.61;99.86;101403.84;5181976;28;20384;-75
2022/09/01 02:36:57;;;;;;;2.05;0.82;;;;;;;13.53;100.00;101398.88;5172791;28;20038;-75
2022/09/01 02:39:32;;;;;;;1.33;0.65;;;;;;;13.64;99.49;101399.34;5181429;28;20045;-75
2022/09/01 02:42:02;;;;;;;1.15;0.68;;;;;;;13.65;100.00;101398.44;5181010;28;20038;-75
2022/09/01 02:44:33;;;;;;;1.45;0.68;;;;;;;13.74;100.00;101402.53;5181890;28;20030;-73
2022/09/01 02:47:08;;;;;;;2.90;0.80;;;;;;;13.58;100.00;101396.91;5176880;28;20507;-75
2022/09/01 02:49:41;;;;;;;1.65;0.70;;;;;;;13.75;100.00;101380.59;5172045;28;20304;-75
2022/09/01 02:52:14;;;;;;;3.67;0.90;;;;;;;13.75;100.00;101388.47;5169799;28;20030;-75
2022/09/01 02:54:47;;;;;;;1.75;0.80;;;;;;;13.94;100.00;101373.75;5159949;28;20026;-75
2022/09/01 02:57:18;;;;;;;2.03;0.80;;;;;;;13.85;99.61;101376.69;5179406;28;20034;-75
2022/09/01 02:59:49;;;;;;;3.42;0.93;;;;;;;13.65;100.00;101376.56;5180128;28;20056;-75
2022/09/01 03:02:19;;;;;;;2.92;0.98;;;;;;;13.61;100.00;101373.16;5164029;28;20033;-75
2022/09/01 03:04:54;;;;;;;4.03;1.10;;;;;;;13.78;100.00;101369.97;5181758;28;20030;-75
2022/09/01 03:07:26;;;;;;;1.27;0.85;;;;;;;13.66;100.00;101378.28;5162555;28;20113;-76
2022/09/01 03:09:56;;;;;;;2.70;1.00;;;;;;;13.72;99.41;101372.81;5180149;28;20041;-75
2022/09/01 03:12:27;;;;;;;2.45;1.02;;;;;;;13.62;100.00;101372.28;5163794;28;20491;-76
2022/09/01 03:14:57;;;;;;;2.33;0.98;;;;;;;13.77;99.55;101381.38;5181519;28;20041;-76
2022/09/01 03:17:27;;;;;;;1.55;0.70;;;;;;;13.78;100.00;101372.59;5173305;28;20048;-75
2022/09/01 03:19:58;;;;;;;2.88;0.85;;;;;;;13.35;100.00;101385.47;5157266;28;20068;-76
2022/09/01 03:22:28;;;;;;;2.25;0.90;;;;;;;13.40;100.00;101375.72;5165806;28;20120;-76
2022/09/01 03:24:59;;;;;;;1.50;0.80;;;;;;;13.63;100.00;101378.38;5178855;28;20581;-75
2022/09/01 03:27:29;;;;;;;1.88;0.82;;;;;;;13.70;100.00;101377.25;5181418;28;20108;-73
2022/09/01 03:30:00;;;;;;;0.98;0.63;;;;;;;13.51;100.00;101384.06;5181003;28;20030;-76
2022/09/01 03:32:31;;;;;;;3.83;0.95;;;;;;;13.55;100.00;101383.91;5173209;28;20045;-75
2022/09/01 03:35:02;;;;;;;2.92;0.70;;;;;;;13.59;100.00;101387.28;5180565;28;20048;-75
2022/09/01 03:37:32;;;;;;;3.60;0.95;;;;;;;13.63;100.00;101381.88;5179987;28;20022;-76
2022/09/01 03:40:05;;;;;;;2.05;0.90;;;;;;;13.61;100.00;101393.34;5180684;28;20038;-76
2022/09/01 03:42:37;;;;;;;3.45;0.90;;;;;;;13.50;100.00;101391.09;5169040;28;20030;-75
2022/09/01 03:45:08;;;;;;;3.53;0.90;;;;;;;13.58;100.00;101383.78;5158353;28;20331;-75
2022/09/01 03:47:39;;;;;;;1.92;0.80;;;;;;;13.43;100.00;101386.94;5172141;28;20026;-75
2022/09/01 03:50:19;;;;;;;2.22;0.80;;;;;;;13.50;100.00;101382.34;5168430;28;20030;-75
2022/09/01 03:52:52;;;;;;;2.45;1.00;;;;;;;13.37;100.00;101381.06;5166594;28;20026;-76
2022/09/01 03:55:26;;;;;;;2.72;0.80;;;;;;;13.32;100.00;101382.97;5179336;28;20387;-75
2022/09/01 03:58:05;;;;;;;2.45;0.90;;;;;;;13.39;100.00;101384.50;5178595;28;20044;-75
2022/09/01 04:00:41;;;;;;;2.28;0.77;;;;;;;13.23;100.00;101385.91;5162600;28;20088;-75
2022/09/01 04:03:12;;;;;;;5.28;1.25;;;;;;;13.21;100.00;101390.38;5162971;28;20121;-76
2022/09/01 04:05:43;;;;;;;3.03;0.90;;;;;;;13.23;100.00;101380.66;5161760;28;20032;-75
2022/09/01 04:08:14;;;;;;;2.63;1.13;;;;;;;13.20;100.00;101383.41;5178525;28;20100;-75
2022/09/01 04:10:50;;;;;;;2.50;1.00;;;;;;;12.86;100.00;101377.50;5174873;28;20046;-75
2022/09/01 04:13:34;;;;;;;1.65;0.80;;;;;;;13.02;100.00;101381.34;5174621;28;20076;-76
2022/09/01 04:18:03;;;;;;;4.30;1.10;;;;;;;12.95;100.00;101382.47;5169559;28;20149;-75
2022/09/01 04:19:00;;;;;;;5.75;1.10;;;;;;;12.98;100.00;101378.91;5168092;28;20052;-75
2022/09/01 04:21:30;;;;;;;2.15;0.90;;;;;;;12.94;100.00;101375.50;5176130;28;20101;-75
2022/09/01 04:24:04;;;;;;;3.58;1.15;;;;;;;13.07;100.00;101382.09;5168064;28;20101;-75
2022/09/01 04:26:34;;;;;;;5.20;1.10;;;;;;;12.88;100.00;101380.94;5173624;28;20113;-74
2022/09/01 04:29:08;;;;;;;2.55;1.10;;;;;;;13.01;100.00;101377.00;5160352;28;20137;-76
2022/09/01 04:31:39;;;;;;;5.28;1.10;;;;;;;13.28;100.00;101381.38;5162151;28;20033;-76
2022/09/01 04:34:12;;;;;;;5.47;1.30;;;;;;;12.99;100.00;101381.47;5153851;28;20037;-76
2022/09/01 04:36:43;;;;;;;2.75;1.10;;;;;;;12.79;100.00;101377.75;5156193;28;20125;-76
2022/09/01 04:39:13;;;;;;;3.47;1.15;;;;;;;12.65;100.00;101375.53;5175627;28;20030;-76
2022/09/01 04:41:45;;;;;;;7.22;1.13;;;;;;;12.59;100.00;101373.13;5180443;28;20723;-76
2022/09/01 04:44:17;;;;;;;3.28;1.13;;;;;;;12.77;100.00;101375.16;5162190;28;20026;-75
2022/09/01 04:46:49;;;;;;;4.22;1.25;;;;;;;12.99;100.00;101378.84;5175049;28;20033;-76
2022/09/01 04:49:21;;;;;;;6.18;1.55;;;;;;;12.98;100.00;101377.13;5168693;28;20049;-75
2022/09/01 04:51:52;;;;;;;6.03;1.30;;;;;;;12.69;100.00;101384.19;5172452;28;20054;-76
2022/09/01 04:54:22;;;;;;;5.25;1.30;;;;;;;12.56;100.00;101377.59;5155474;28;20030;-76
2022/09/01 04:56:53;;;;;;;4.05;1.13;;;;;;;12.89;100.00;101380.03;5162026;28;20040;-75
2022/09/01 04:59:26;;;;;;;3.53;1.23;;;;;;;12.73;100.00;101376.16;5163863;28;20496;-76
2022/09/01 05:01:58;;;;;;;3.85;1.17;;;;;;;12.90;100.00;101381.75;5176839;28;20022;-75
2022/09/01 05:04:32;;;;;;;4.55;1.42;;;;;;;12.97;100.00;101385.91;5168498;28;20023;-76
2022/09/01 05:07:04;;;;;;;2.55;1.00;;;;;;;13.19;100.00;101387.78;5170021;28;20036;-76
2022/09/01 05:09:36;;;;;;;2.53;1.23;;;;;;;13.02;100.00;101392.72;5182112;28;20156;-76
2022/09/01 05:12:10;;;;;;;5.38;1.50;;;;;;;12.99;100.00;101390.22;5169910;28;20030;-76
2022/09/01 05:14:47;;;;;;;5.63;1.33;;;;;;;13.01;100.00;101396.25;5162621;28;20037;-76
2022/09/01 05:17:17;;;;;;;5.40;1.33;;;;;;;13.13;100.00;101398.50;5172771;28;20049;-76
2022/09/01 05:19:49;;;;;;;3.58;1.20;;;;;;;12.86;100.00;101400.25;5153903;28;20131;-76
2022/09/01 05:22:21;;;;;;;5.20;1.02;;;;;;;13.26;100.00;101398.94;5162220;28;20053;-76
2022/09/01 05:24:52;;;;;;;4.22;1.38;;;;;;;13.09;100.00;101396.00;5184926;28;20018;-76
2022/09/01 05:27:22;;;;;;;3.40;1.13;;;;;;;13.33;100.00;101403.06;5164920;28;20033;-76
2022/09/01 05:29:52;;;;;;;4.65;1.25;;;;;;;13.32;100.00;101399.59;5180505;28;20045;-76
2022/09/01 05:32:24;;;;;;;7.05;1.40;;;;;;;13.27;100.00;101411.16;5163999;28;20029;-76
2022/09/01 05:34:55;;;;;;;5.68;1.10;;;;;;;13.57;100.00;101400.47;5169891;28;20049;-76
2022/09/01 05:37:27;;;;;;;2.22;1.23;;;;;;;13.78;100.00;101396.25;5166496;28;20022;-76
2022/09/01 05:39:58;;;;;;;3.70;1.20;;;;;;;13.80;100.00;101402.28;5173503;28;20115;-76
2022/09/01 05:42:29;;;;;;;3.53;1.33;;;;;;;13.99;100.00;101403.34;5152027;28;20494;-76
2022/09/01 05:45:00;;;;;;;5.85;1.20;;;;;;;14.08;100.00;101397.78;5157974;28;20380;-76
2022/09/01 05:47:35;;;;;;;6.15;1.20;;;;;;;14.31;99.47;101393.41;5173165;28;20034;-76
2022/09/01 05:50:09;;;;;;;3.58;1.30;;;;;;;14.62;98.94;101391.28;5156896;28;20415;-76
2022/09/01 05:52:43;;;;;;;2.80;0.95;;;;;;;14.88;97.62;101394.59;5164124;28;20079;-76
2022/09/01 05:55:14;;;;;;;4.05;1.30;;;;;;;14.72;97.40;101397.03;5163187;28;20090;-76
2022/09/01 05:57:46;;;;;;;2.58;1.13;;;;;;;14.87;97.99;101394.69;5180082;28;20495;-76
2022/09/01 06:00:17;;;;;;;2.17;1.00;;;;;;;15.00;98.06;101391.50;5162831;28;20030;-76
2022/09/01 06:02:47;;;;;;;2.90;1.00;;;;;;;15.14;98.00;101393.56;5180918;28;20034;-76
2022/09/01 06:05:18;;;;;;;3.78;1.10;;;;;;;15.15;98.00;101390.88;5151532;28;20084;-76
2022/09/01 06:07:49;;;;;;;2.90;1.00;;;;;;;15.15;98.71;101403.19;5158348;28;20037;-75
2022/09/01 06:10:20;;;;;;;3.65;1.00;;;;;;;15.11;97.67;101407.72;5180509;28;20033;-76
2022/09/01 06:12:52;;;;;;;4.60;1.15;;;;;;;15.28;97.14;101405.25;5181685;28;20606;-76
2022/09/01 06:15:23;;;;;;;5.90;1.10;;;;;;;15.36;97.95;101403.16;5182842;28;20026;-76
2022/09/01 06:17:54;;;;;;;1.80;0.80;;;;;;;15.35;96.21;101395.34;5172029;28;20029;-76
2022/09/01 06:20:25;;;;;;;3.47;0.88;;;;;;;15.51;96.25;101401.69;5159498;28;20025;-76
2022/09/01 06:22:55;;;;;;;3.50;1.10;;;;;;;15.49;96.00;101398.22;5175030;28;20114;-76
2022/09/01 06:25:29;;;;;;;3.05;1.00;;;;;;;15.52;95.66;101404.25;5169774;28;20026;-76
2022/09/01 06:28:03;;;;;;;2.05;0.90;;;;;;;15.48;96.53;101410.56;5164541;28;20022;-76
2022/09/01 06:30:35;;;;;;;4.57;1.00;;;;;;;15.28;96.69;101407.00;5177110;28;20314;-75
2022/09/01 06:33:09;;;;;;;3.60;1.30;;;;;;;15.53;95.43;101403.31;5164950;28;20030;-76
2022/09/01 06:35:43;;;;;;;3.35;0.93;;;;;;;15.66;95.14;101407.16;5182228;28;20499;-76
2022/09/01 06:38:16;;;;;;;4.63;1.00;;;;;;;15.67;95.47;101410.66;5163320;28;20034;-76
2022/09/01 06:40:47;;;;;;;3.08;1.10;;;;;;;15.78;94.26;101406.63;5164360;28;20034;-75
2022/09/01 06:43:18;;;;;;;3.20;0.93;;;;;;;15.88;95.37;101407.91;5164811;28;20499;-77
2022/09/01 06:45:48;;;;;;;2.38;1.10;;;;;;;15.77;95.57;101414.59;5182149;28;20043;-77
2022/09/01 06:48:18;;;;;;;2.85;1.10;;;;;;;15.99;94.95;101418.88;5169723;28;20029;-77
2022/09/01 06:50:49;;;;;;;2.78;1.00;;;;;;;15.98;94.38;101409.25;5181970;28;20444;-75
2022/09/01 06:53:20;;;;;;;3.63;1.13;;;;;;;15.84;94.85;101414.25;5180320;28;20471;-76
2022/09/01 06:55:52;;;;;;;2.35;0.90;;;;;;;16.00;94.33;101417.06;5181150;28;20387;-76
2022/09/01 07:01:14;;;;;;;3.20;1.27;;;;;;;16.07;94.49;101421.16;5163069;28;20061;-74
2022/09/01 07:03:48;;;;;;;1.55;0.77;;;;;;;16.32;94.07;101419.13;5161757;28;20019;-74
2022/09/01 07:06:26;;;;;;;2.08;0.88;;;;;;;16.31;93.29;101423.56;5167601;28;20057;-74
2022/09/01 07:09:00;;;;;;;1.73;0.75;;;;;;;16.59;92.93;101418.72;5162517;28;20038;-74
2022/09/01 07:11:32;;;;;;;6.53;1.30;;;;;;;17.13;90.72;101419.59;5168338;28;20041;-75
2022/09/01 07:14:04;;;;;;;2.75;0.90;;;;;;;18.52;82.55;101410.59;5163629;28;20033;-75
2022/09/01 07:16:39;;;;;;;3.30;1.08;;;;;;;20.68;76.85;101402.75;5166219;28;20511;-72
2022/09/01 07:19:14;;;;;;;3.78;0.90;;;;;;;23.45;67.34;101392.91;5166026;28;20038;-75
2022/09/01 07:21:45;;;;;;;5.40;1.10;;;;;;;24.65;63.13;101394.94;5149983;28;20518;-75
2022/09/01 07:24:17;;;;;;;2.70;0.80;;;;;;;26.29;58.99;101389.78;5170444;28;20061;-73
2022/09/01 07:26:49;;;;;;;2.13;0.70;;;;;;;26.80;56.75;101391.41;5167858;28;20036;-73
2022/09/01 07:29:21;;;;;;;3.22;0.80;;;;;;;27.72;54.84;101397.16;5148515;28;20475;-73
2022/09/01 07:31:54;;;;;;;2.38;0.70;;;;;;;26.34;57.24;101398.28;5170955;28;20097;-73
2022/09/01 07:34:25;;;;;;;1.98;0.70;;;;;;;27.01;54.84;101389.47;5166576;28;20083;-73
2022/09/01 07:36:58;;;;;;;2.05;0.70;;;;;;;26.85;53.59;101400.75;5164231;28;20039;-73
2022/09/01 07:39:30;;;;;;;1.92;0.70;;;;;;;27.97;52.07;101381.25;5171073;28;20030;-73
2022/09/01 07:42:08;;;;;;;3.08;0.90;;;;;;;27.31;51.57;101387.53;5166353;28;20504;-73
2022/09/01 07:44:38;;;;;;;1.38;0.50;;;;;;;27.33;50.62;101390.97;5166735;28;20030;-73
2022/09/01 07:47:09;;;;;;;3.53;0.80;;;;;;;27.97;49.11;101391.19;5165655;28;20499;-73
2022/09/01 07:49:40;;;;;;;1.30;0.75;;;;;;;27.86;49.09;101389.50;5159803;28;20054;-73
2022/09/01 07:52:11;;;;;;;1.15;0.43;;;;;;;28.10;47.97;101387.16;5168835;28;20458;-73
2022/09/01 07:54:42;;;;;;;3.70;0.50;;;;;;;26.84;49.05;101393.69;5170035;28;20128;-72
2022/09/01 07:57:13;;;;;;;1.00;0.50;;;;;;;26.00;50.41;101394.19;5164128;28;20026;-72
2022/09/01 07:59:44;;;;;;;4.40;0.80;;;;;;;25.66;50.54;101400.69;5161071;28;20280;-72
2022/09/01 08:02:16;;;;;;;2.08;0.70;;;;;;;27.71;48.69;101390.06;5168735;28;20025;-72
2022/09/01 08:04:47;;;;;;;2.45;0.60;;;;;;;27.96;47.41;101390.31;5171102;28;20026;-72
2022/09/01 08:07:19;;;;;;;2.75;0.70;;;;;;;28.42;46.44;101398.41;5167543;28;20467;-73
2022/09/01 08:09:49;;;;;;;1.52;0.50;;;;;;;28.07;46.93;101392.84;5170246;28;20053;-73
2022/09/01 08:12:20;;;;;;;4.00;0.80;;;;;;;28.19;47.41;101385.44;5150446;28;20120;-72
2022/09/01 08:14:52;;;;;;;4.78;0.60;;;;;;;27.03;48.41;101400.91;5152660;28;20037;-73
2022/09/01 08:17:22;;;;;;;2.75;0.40;;;;;;;26.76;48.48;101395.38;5163486;28;20097;-72
2022/09/01 08:19:52;;;;;;;2.27;0.63;;;;;;;26.55;49.18;101399.09;5158711;28;20853;-72
2022/09/01 08:22:24;;;;;;;1.52;0.60;;;;;;;26.18;49.12;101404.13;5162340;28;20277;-73
2022/09/01 08:24:54;;;;;;;1.88;0.70;;;;;;;28.03;46.43;101393.28;5170871;28;20026;-72
2022/09/01 08:27:25;;;;;;;3.20;0.40;;;;;;;27.84;46.70;101399.56;5165838;28;20037;-72
2022/09/01 08:29:55;;;;;;;2.30;0.40;;;;;;;26.69;47.72;101401.41;5166679;28;20030;-72
2022/09/01 08:32:26;;;;;;;0.57;0.40;;;;;;;28.19;46.36;101385.44;5164233;28;20291;-72
2022/09/01 08:34:57;;;;;;;1.08;0.50;;;;;;;29.21;44.73;101386.91;5166755;28;20038;-72
2022/09/01 08:37:27;;;;;;;1.65;0.73;;;;;;;28.74;45.67;101393.44;5161407;28;20031;-72
2022/09/01 08:39:58;;;;;;;1.00;0.40;;;;;;;29.12;44.72;101393.22;5167416;28;20056;-72
2022/09/01 08:42:52;;;;;;;4.35;0.80;;;;;;;30.12;43.88;101390.03;5167952;28;20049;-72
2022/09/01 08:45:30;;;;;;;4.68;0.50;;;;;;;31.30;43.24;101386.13;5166851;28;20613;-72
2022/09/01 08:48:10;;;;;;;4.20;0.60;;;;;;;30.37;43.81;101394.56;5156548;28;20538;-73
2022/09/01 08:50:44;;;;;;;3.50;0.50;;;;;;;31.48;42.49;101384.13;5148838;28;20022;-72
2022/09/01 08:53:27;;;;;;;1.05;0.40;;;;;;;32.35;42.59;101381.50;5169726;28;20534;-73
2022/09/01 08:55:58;;;;;;;1.85;0.40;;;;;;;31.21;43.96;101397.09;5162289;28;20038;-72
2022/09/01 08:58:30;;;;;;;3.60;0.70;;;;;;;30.98;45.19;101391.44;5169363;28;20025;-73
2022/09/01 09:01:36;;;;;;;4.68;0.70;;;;;;;30.30;45.34;101394.38;5167600;28;20054;-72
2022/09/01 09:04:11;;;;;;;3.60;0.40;;;;;;;28.72;45.27;101400.81;5088009;28;20078;-73
2022/09/01 09:07:22;;;;;;;2.50;0.57;;;;;;;28.20;46.02;101397.91;5168138;28;20097;-72
2022/09/01 09:10:01;;;;;;;2.08;0.50;;;;;;;26.73;47.69;101406.38;5158700;28;20044;-72
2022/09/01 09:12:43;;;;;;;1.73;0.50;;;;;;;27.52;47.63;101392.78;5164448;28;20287;-72
2022/09/01 09:15:32;;;;;;;3.55;0.50;;;;;;;26.55;47.74;101401.78;5168225;28;20037;-72
2022/09/01 09:18:15;;;;;;;5.65;0.82;;;;;;;27.50;46.13;101389.38;5156001;28;20050;-72
2022/09/01 09:20:46;;;;;;;3.03;0.38;;;;;;;27.31;45.83;101387.53;5166016;28;20062;-72
2022/09/01 09:23:28;;;;;;;3.47;0.40;;;;;;;26.90;47.63;101387.75;5169736;28;20284;-72
2022/09/01 09:25:58;;;;;;;2.53;0.60;;;;;;;26.24;47.12;101394.72;5163935;28;20022;-72
2022/09/01 09:28:29;;;;;;;2.17;0.50;;;;;;;25.63;48.95;101390.25;5168561;28;20033;-72
2022/09/01 09:31:47;;;;;;;1.23;0.40;;;;;;;26.21;48.97;101386.94;5167618;28;20569;-72
2022/09/01 09:34:37;;;;;;;5.88;0.40;;;;;;;25.60;49.46;101383.31;5075900;29;20032;-72
2022/09/01 09:37:21;;;;;;;7.00;0.60;;;;;;;24.04;52.11;101390.03;5165052;28;20101;-71
2022/09/01 09:40:10;;;;;;;1.55;0.40;;;;;;;24.72;51.61;101380.06;5168220;28;20038;-71
2022/09/01 09:43:02;;;;;;;2.40;0.40;;;;;;;24.35;51.65;101385.81;5161896;28;20393;-71
2022/09/01 09:45:38;;;;;;;4.65;0.40;;;;;;;24.63;51.23;101366.59;5164013;28;20508;-71
2022/09/01 09:48:25;;;;;;;2.83;0.50;;;;;;;24.48;52.35;101374.00;5162026;28;20113;-71
2022/09/01 09:51:15;;;;;;;1.98;0.40;;;;;;;24.82;52.49;101375.69;5166447;28;20030;-71
2022/09/01 09:53:45;;;;;;;2.45;0.30;;;;;;;23.52;52.85;101383.47;5166502;28;20041;-72
2022/09/01 09:56:24;;;;;;;2.47;0.70;;;;;;;22.90;54.01;101388.16;5165535;28;20487;-71
2022/09/01 09:58:54;;;;;;;1.65;0.60;;;;;;;23.44;54.15;101367.19;5166073;28;20037;-71
2022/09/01 10:01:30;;;;;;;2.17;0.30;;;;;;;23.42;53.84;101361.97;5165572;28;20080;-71
2022/09/01 10:04:02;;;;;;;0.95;0.47;;;;;;;23.04;54.39;101376.44;5163390;28;20039;-72
2022/09/01 10:06:44;;;;;;;1.60;0.50;;;;;;;23.06;52.73;101379.84;5165000;28;20105;-72
2022/09/01 10:09:35;;;;;;;2.58;0.30;;;;;;;22.73;53.20;101376.16;5169681;28;20034;-72
2022/09/01 10:12:09;;;;;;;2.15;0.50;;;;;;;22.96;54.31;101363.69;5168619;28;20030;-72
2022/09/01 10:14:51;;;;;;;2.17;0.40;;;;;;;23.10;54.26;101352.84;5154047;28;20060;-72
2022/09/01 10:17:35;;;;;;;2.22;0.40;;;;;;;23.06;53.43;101358.50;5166455;28;20030;-72
2022/09/01 10:20:25;;;;;;;1.98;0.40;;;;;;;22.75;55.19;101365.28;5165269;28;20021;-72
2022/09/01 10:22:55;;;;;;;0.90;0.30;;;;;;;22.70;55.62;101367.41;5165254;28;20131;-72
2022/09/01 10:25:29;;;;;;;2.83;0.40;;;;;;;22.58;54.36;101362.13;5173225;28;20069;-72
2022/09/01 10:28:15;;;;;;;0.50;0.38;;;;;;;22.65;53.21;101357.19;5168721;28;20065;-72
2022/09/01 10:30:46;;;;;;;2.13;0.38;;;;;;;22.88;53.56;101352.72;5170466;28;20243;-72
2022/09/01 10:33:19;;;;;;;1.50;0.40;;;;;;;22.58;55.39;101355.94;5173175;28;20536;-72
2022/09/01 10:35:52;;;;;;;1.15;0.30;;;;;;;23.06;55.14;101351.34;5170714;28;20438;-72
2022/09/01 10:38:25;;;;;;;3.05;0.40;;;;;;;22.43;54.60;101346.41;5169066;28;20030;-72
2022/09/01 10:41:07;;;;;;;0.82;0.40;;;;;;;21.97;53.98;101347.91;5166134;28;20432;-72
2022/09/01 10:43:46;;;;;;;2.72;0.50;;;;;;;22.47;54.57;101345.22;5171593;28;20037;-72
2022/09/01 10:46:20;;;;;;;2.42;0.40;;;;;;;22.13;55.32;101348.53;5170287;28;20431;-71
2022/09/01 10:48:57;;;;;;;0.47;0.32;;;;;;;22.39;55.06;101344.91;5160148;28;20045;-72
2022/09/01 10:51:27;;;;;;;1.23;0.45;;;;;;;22.31;55.71;101349.91;5165690;28;20048;-72
2022/09/01 10:53:58;;;;;;;4.63;0.30;;;;;;;22.37;54.71;101339.66;5155167;28;20029;-72
2022/09/01 10:56:49;;;;;;;1.08;0.38;;;;;;;22.22;53.95;101337.25;5169032;28;20022;-72
2022/09/01 10:59:27;;;;;;;0.38;0.20;;;;;;;22.55;53.82;101341.03;5169491;28;20026;-72
2022/09/01 11:02:07;;;;;;;3.50;0.30;;;;;;;22.89;54.93;101343.78;5166025;28;20038;-71
2022/09/01 11:04:38;;;;;;;1.70;0.40;;;;;;;22.44;54.95;101340.09;5171548;28;20072;-72
2022/09/01 11:07:17;;;;;;;1.90;0.50;;;;;;;22.48;54.86;101342.44;5170345;28;20049;-72
2022/09/01 11:10:18;;;;;;;1.38;0.30;;;;;;;22.52;55.02;101333.25;5169704;28;20034;-72
2022/09/01 11:13:18;;;;;;;4.40;0.45;;;;;;;22.47;55.84;101335.41;5171181;28;20025;-72
2022/09/01 11:15:49;;;;;;;1.48;0.40;;;;;;;22.96;55.76;101321.00;5152401;28;20037;-72
2022/09/01 11:18:28;;;;;;;2.47;0.30;;;;;;;23.18;55.31;101314.97;5159368;28;20026;-72
2022/09/01 11:21:26;;;;;;;1.10;0.40;;;;;;;22.54;53.88;101322.47;5167254;28;20037;-72
2022/09/01 11:24:34;;;;;;;1.75;0.40;;;;;;;22.57;54.58;101328.44;5167749;28;20850;-71
2022/09/01 11:27:07;;;;;;;1.85;0.52;;;;;;;22.80;55.00;101319.59;5165895;28;20034;-72
2022/09/01 11:29:51;;;;;;;1.17;0.40;;;;;;;22.67;55.00;101332.97;5170258;28;20056;-72
2022/09/01 11:32:26;;;;;;;3.92;0.43;;;;;;;23.02;55.67;101323.22;5169945;28;20030;-72
2022/09/01 11:34:59;;;;;;;1.33;0.45;;;;;;;22.99;54.88;101311.94;5147245;28;20034;-72
2022/09/01 11:37:29;;;;;;;0.93;0.38;;;;;;;22.66;55.25;101325.13;5169943;28;20029;-72
2022/09/01 11:40:03;;;;;;;1.45;0.40;;;;;;;22.47;55.37;101326.56;5153061;28;20041;-72
2022/09/01 11:42:39;;;;;;;1.38;0.30;;;;;;;22.77;55.46;101320.69;5163743;28;20030;-72
2022/09/01 11:45:16;;;;;;;0.65;0.30;;;;;;;22.97;55.90;101322.72;5168189;28;20030;-72
2022/09/01 11:47:50;;;;;;;1.02;0.40;;;;;;;22.90;54.86;101312.63;5162655;28;20034;-72
2022/09/01 11:50:25;;;;;;;4.18;0.50;;;;;;;22.48;54.78;101317.59;5163277;28;20029;-73
2022/09/01 11:53:06;;;;;;;2.90;0.40;;;;;;;22.64;55.03;101319.03;5163104;28;20202;-72
2022/09/01 11:55:41;;;;;;;0.75;0.30;;;;;;;21.94;55.13;101319.69;5171048;28;20137;-71
2022/09/01 11:58:27;;;;;;;0.82;0.40;;;;;;;22.40;55.67;101319.97;5160720;28;20038;-71
2022/09/01 12:01:36;;;;;;;3.22;0.52;;;;;;;22.25;54.62;101313.88;5163939;28;20033;-72
2022/09/01 12:04:27;;;;;;;3.75;0.50;;;;;;;22.51;54.33;101309.38;5158258;28;20035;-72
2022/09/01 12:07:22;;;;;;;1.00;0.30;;;;;;;22.83;54.24;101306.06;5164123;28;20084;-71